createdAt,value
2023-05-05T00:02:19.109Z,66.90
2023-05-05T00:05:21.099Z,67.30
2023-05-05T00:08:23.047Z,67.50
2023-05-05T00:11:25.927Z,67.30
2023-05-05T00:14:27.578Z,67.30
2023-05-05T00:17:29.227Z,67.50
2023-05-05T00:20:31.442Z,66.80
2023-05-05T00:23:33.072Z,66.40
2023-05-05T00:26:34.665Z,65.90
2023-05-05T00:29:36.264Z,66.30
2023-05-05T00:32:37.897Z,65.70
2023-05-05T00:35:39.585Z,65.60
2023-05-05T00:38:41.189Z,65.80
2023-05-05T00:41:42.802Z,66.00
2023-05-05T00:44:44.891Z,66.40
2023-05-05T00:47:52.328Z,67.20
2023-05-05T00:50:53.990Z,68.10
2023-05-05T00:53:56.016Z,68.70
2023-05-05T00:56:57.686Z,70.20
2023-05-05T00:59:59.762Z,70.80
2023-05-05T01:03:01.519Z,71.40
2023-05-05T01:06:41.158Z,71.70
2023-05-05T01:10:10.963Z,71.70
2023-05-05T01:13:42.619Z,71.90
2023-05-05T01:16:59.823Z,71.80
2023-05-05T01:20:29.337Z,71.50
2023-05-05T01:23:58.962Z,71.80
2023-05-05T01:27:48.170Z,71.50
2023-05-05T01:31:14.231Z,71.30
2023-05-05T01:34:19.155Z,70.70
2023-05-05T01:37:53.487Z,70.40
2023-05-05T01:41:17.179Z,69.60
2023-05-05T01:44:20.248Z,68.30
2023-05-05T01:47:23.518Z,68.80
2023-05-05T01:50:28.683Z,69.60
2023-05-05T01:53:31.866Z,70.20
2023-05-05T01:56:34.512Z,73.50
2023-05-05T01:59:37.857Z,74.30
2023-05-05T02:02:40.449Z,75.40
2023-05-05T02:05:44.371Z,76.00
2023-05-05T02:08:47.499Z,76.80
2023-05-05T02:11:49.771Z,77.30
2023-05-05T02:14:52.119Z,77.20
2023-05-05T02:17:54.149Z,77.00
2023-05-05T02:20:55.925Z,76.40
2023-05-05T02:23:58.274Z,75.70
2023-05-05T02:27:03.491Z,75.50
2023-05-05T02:30:09.307Z,75.20
2023-05-05T02:33:13.778Z,74.70
2023-05-05T02:36:20.211Z,74.60
2023-05-05T02:39:32.712Z,74.60
2023-05-05T02:42:38.395Z,74.50
2023-05-05T02:45:40.131Z,74.70
2023-05-05T02:48:42.037Z,75.30
2023-05-05T02:51:43.586Z,75.30
2023-05-05T02:54:45.275Z,75.70
2023-05-05T02:58:06.639Z,76.00
2023-05-05T03:01:16.875Z,75.50
2023-05-05T03:04:38.044Z,75.20
2023-05-05T03:07:44.835Z,75.70
2023-05-05T03:11:07.925Z,75.80
2023-05-05T03:14:12.152Z,75.70
2023-05-05T03:17:17.197Z,75.60
2023-05-05T03:20:20.177Z,75.30
2023-05-05T03:23:22.735Z,75.60
2023-05-05T03:26:24.701Z,75.80
2023-05-05T03:29:26.694Z,76.00
2023-05-05T03:32:28.759Z,76.40
2023-05-05T03:35:30.585Z,76.80
2023-05-05T03:38:32.222Z,77.10
2023-05-05T03:41:33.948Z,77.10
2023-05-05T03:44:35.864Z,76.90
2023-05-05T03:47:37.517Z,77.20
2023-05-05T03:50:39.185Z,77.40
2023-05-05T03:53:40.906Z,77.90
2023-05-05T03:56:42.784Z,78.30
2023-05-05T03:59:44.395Z,78.60
2023-05-05T04:02:46.142Z,79.00
2023-05-05T04:05:48.193Z,78.80
2023-05-05T04:08:49.738Z,78.30
2023-05-05T04:11:51.411Z,78.00
2023-05-05T04:14:53.004Z,78.30
2023-05-05T04:17:54.665Z,78.10
2023-05-05T04:20:56.259Z,78.10
2023-05-05T04:23:58.372Z,78.00
2023-05-05T04:27:00.174Z,77.70
2023-05-05T04:30:01.726Z,77.40
2023-05-05T04:33:03.532Z,77.00
2023-05-05T04:36:05.314Z,76.20
2023-05-05T04:39:07.327Z,75.30
2023-05-05T04:42:08.970Z,74.70
2023-05-05T04:45:11.026Z,74.30
2023-05-05T04:48:12.591Z,74.20
2023-05-05T04:51:14.203Z,74.10
2023-05-05T04:54:15.834Z,73.90
2023-05-05T04:57:17.471Z,73.60
2023-05-05T05:00:19.137Z,72.70
2023-05-05T05:03:21.035Z,71.50
2023-05-05T05:06:22.779Z,70.70
2023-05-05T05:09:24.732Z,70.10
2023-05-05T05:12:26.311Z,69.60
2023-05-05T05:15:27.999Z,69.00
2023-05-05T05:18:29.672Z,69.30
2023-05-05T05:21:31.671Z,70.00
2023-05-05T05:24:34.677Z,70.30
2023-05-05T05:27:36.460Z,69.50
2023-05-05T05:30:38.058Z,69.60
2023-05-05T05:33:41.921Z,69.40
2023-05-05T05:36:43.498Z,69.80
2023-05-05T05:39:51.966Z,70.10
2023-05-05T05:42:53.546Z,70.00
2023-05-05T05:45:55.249Z,69.30
2023-05-05T05:48:57.299Z,69.00
2023-05-05T05:51:58.901Z,67.20
2023-05-05T05:55:00.524Z,66.00
2023-05-05T05:58:02.152Z,65.90
2023-05-05T06:01:04.897Z,66.00
2023-05-05T06:04:06.542Z,66.00
2023-05-05T06:07:08.174Z,66.50
2023-05-05T06:10:25.859Z,66.00
2023-05-05T06:13:29.285Z,66.00
2023-05-05T06:16:30.966Z,65.70
2023-05-05T06:19:33.025Z,66.00
2023-05-05T06:22:34.692Z,66.40
2023-05-05T06:25:36.643Z,66.60
2023-05-05T06:28:38.322Z,66.30
2023-05-05T06:31:40.339Z,65.70
2023-05-05T06:34:44.499Z,65.30
2023-05-05T06:37:46.061Z,64.90
2023-05-05T06:40:49.527Z,65.00
2023-05-05T06:43:51.215Z,65.20
2023-05-05T06:46:54.067Z,65.40
2023-05-05T06:49:55.662Z,65.70
2023-05-05T06:52:57.283Z,66.10
2023-05-05T06:55:58.894Z,66.30
2023-05-05T06:59:00.553Z,65.80
2023-05-05T07:02:02.196Z,65.30
2023-05-05T07:05:04.262Z,65.00
2023-05-05T07:08:06.825Z,64.40
2023-05-05T07:11:08.393Z,64.50
2023-05-05T07:14:09.974Z,63.70
2023-05-05T07:17:11.804Z,63.10
2023-05-05T07:20:13.503Z,63.50
2023-05-05T07:23:15.227Z,63.20
2023-05-05T07:26:16.869Z,63.20
2023-05-05T07:29:18.514Z,63.50
2023-05-05T07:32:20.244Z,63.10
2023-05-05T07:35:21.887Z,62.50
2023-05-05T07:38:25.182Z,62.30
2023-05-05T07:41:26.782Z,61.90
2023-05-05T07:44:28.412Z,61.40
2023-05-05T07:47:30.271Z,61.30
2023-05-05T07:50:32.124Z,61.60
2023-05-05T07:53:33.686Z,61.50
2023-05-05T07:56:35.381Z,61.50
2023-05-05T07:59:38.472Z,61.20
2023-05-05T08:02:40.346Z,61.00
2023-05-05T08:05:42.465Z,60.60
2023-05-05T08:08:44.041Z,60.30
2023-05-05T08:11:45.702Z,59.90
2023-05-05T08:14:47.341Z,60.10
2023-05-05T08:17:51.479Z,59.50
2023-05-05T08:20:54.526Z,58.90
2023-05-05T08:23:56.111Z,58.90
2023-05-05T08:26:57.713Z,59.20
2023-05-05T08:29:59.465Z,59.20
2023-05-05T08:33:01.199Z,58.30
2023-05-05T08:36:02.853Z,57.90
2023-05-05T08:39:04.555Z,57.20
2023-05-05T08:42:06.617Z,56.90
2023-05-05T08:45:10.368Z,57.20
2023-05-05T08:48:13.320Z,57.60
2023-05-05T08:51:19.650Z,57.30
2023-05-05T08:54:27.106Z,57.60
2023-05-05T08:57:36.452Z,57.60
2023-05-05T09:00:40.893Z,57.50
2023-05-05T09:03:43.671Z,58.10
2023-05-05T09:06:45.645Z,58.20
2023-05-05T09:09:48.032Z,57.20
2023-05-05T09:12:51.288Z,57.80
2023-05-05T09:15:53.112Z,57.60
2023-05-05T09:19:02.508Z,57.20
2023-05-05T09:22:04.086Z,57.10
2023-05-05T09:25:08.524Z,56.10
2023-05-05T09:28:15.581Z,55.70
2023-05-05T09:31:17.208Z,55.10
2023-05-05T09:34:18.895Z,55.00
2023-05-05T09:37:32.620Z,54.20
2023-05-05T09:40:53.783Z,54.30
2023-05-05T09:43:55.433Z,54.20
2023-05-05T09:46:58.193Z,53.40
2023-05-05T09:49:59.902Z,52.80
2023-05-05T09:53:03.246Z,52.60
2023-05-05T09:56:05.446Z,51.30
2023-05-05T09:59:11.767Z,52.10
2023-05-05T10:02:13.739Z,52.00
2023-05-05T10:05:17.480Z,51.60
2023-05-05T10:08:24.383Z,51.30
2023-05-05T10:11:26.356Z,51.00
2023-05-05T10:14:31.536Z,51.50
2023-05-05T10:17:36.856Z,50.50
2023-05-05T10:20:40.178Z,50.10
2023-05-05T10:23:56.082Z,49.00
2023-05-05T10:26:59.900Z,48.40
2023-05-05T10:30:05.133Z,47.60
2023-05-05T10:33:31.647Z,47.20
2023-05-05T10:36:34.527Z,47.90
2023-05-05T10:39:37.337Z,45.50
2023-05-05T10:42:40.033Z,45.50
2023-05-05T10:45:42.661Z,44.90
2023-05-05T10:49:06.562Z,43.90
2023-05-05T10:52:23.400Z,44.30
2023-05-05T10:55:39.056Z,43.50
2023-05-05T10:58:58.258Z,42.90
2023-05-05T11:02:01.700Z,45.40
2023-05-05T11:05:18.109Z,45.90
2023-05-05T11:08:27.007Z,45.00
2023-05-05T11:12:05.427Z,43.70
2023-05-05T11:15:25.923Z,43.30
2023-05-05T11:18:35.624Z,41.40
2023-05-05T11:22:00.982Z,42.20
2023-05-05T11:25:37.821Z,41.60
2023-05-05T11:29:03.813Z,41.80
2023-05-05T11:32:13.118Z,40.60
2023-05-05T11:35:15.420Z,40.50
2023-05-05T11:38:20.785Z,40.90
2023-05-05T11:41:34.280Z,40.40
2023-05-05T11:44:36.097Z,40.40
2023-05-05T11:47:37.838Z,41.50
2023-05-05T11:50:39.982Z,40.90
2023-05-05T11:53:46.396Z,40.70
2023-05-05T11:56:54.976Z,41.30
2023-05-05T12:00:06.154Z,40.70
2023-05-05T12:03:08.778Z,42.00
2023-05-05T12:06:10.592Z,41.80
2023-05-05T12:09:16.340Z,40.10
2023-05-05T12:12:18.515Z,40.70
2023-05-05T12:15:30.867Z,39.90
2023-05-05T12:18:32.511Z,39.70
2023-05-05T12:21:35.130Z,38.50
2023-05-05T12:24:36.843Z,38.70
2023-05-05T12:27:38.708Z,39.60
2023-05-05T12:30:40.530Z,38.90
2023-05-05T12:33:42.840Z,39.10
2023-05-05T12:36:45.158Z,38.10
2023-05-05T12:39:47.310Z,38.80
2023-05-05T12:42:49.126Z,37.00
2023-05-05T12:46:03.679Z,36.60
2023-05-05T12:49:06.858Z,37.50
2023-05-05T12:52:10.035Z,37.40
2023-05-05T12:55:12.730Z,37.80
2023-05-05T12:58:14.464Z,37.40
2023-05-05T13:01:16.082Z,37.50
2023-05-05T13:04:18.358Z,37.70
2023-05-05T13:07:23.120Z,38.10
2023-05-05T13:10:31.240Z,36.20
2023-05-05T13:13:32.999Z,36.30
2023-05-05T13:16:34.762Z,36.30
2023-05-05T13:19:41.842Z,37.40
2023-05-05T13:22:43.595Z,35.90
2023-05-05T13:25:47.736Z,37.10
2023-05-05T13:28:49.455Z,37.00
2023-05-05T13:31:51.098Z,35.00
2023-05-05T13:34:52.959Z,33.90
2023-05-05T13:37:54.550Z,34.10
2023-05-05T13:40:56.243Z,36.00
2023-05-05T13:43:57.837Z,35.60
2023-05-05T13:46:59.509Z,34.90
2023-05-05T13:50:02.016Z,35.20
2023-05-05T13:53:04.045Z,35.70
2023-05-05T13:56:06.295Z,35.20
2023-05-05T13:59:07.962Z,36.20
2023-05-05T14:02:09.616Z,36.60
2023-05-05T14:05:11.346Z,34.90
2023-05-05T14:08:13.599Z,34.90
2023-05-05T14:11:17.208Z,35.20
2023-05-05T14:14:19.624Z,32.80
2023-05-05T14:17:21.212Z,35.10
2023-05-05T14:20:23.055Z,35.20
2023-05-05T14:23:24.618Z,35.00
2023-05-05T14:26:26.248Z,36.50
2023-05-05T14:29:27.873Z,36.70
2023-05-05T14:32:29.424Z,36.20
2023-05-05T14:35:31.399Z,36.50
2023-05-05T14:38:33.075Z,37.90
2023-05-05T14:41:34.691Z,36.00
2023-05-05T14:44:36.632Z,36.70
2023-05-05T14:47:38.290Z,37.40
2023-05-05T14:50:42.143Z,38.20
2023-05-05T14:53:43.780Z,38.90
2023-05-05T14:56:45.393Z,39.30
2023-05-05T14:59:51.194Z,40.10
2023-05-05T15:02:52.867Z,40.00
2023-05-05T15:05:54.414Z,41.30
2023-05-05T15:08:56.044Z,41.30
2023-05-05T15:11:57.599Z,42.50
2023-05-05T15:14:59.194Z,42.40
2023-05-05T15:18:00.783Z,42.20
2023-05-05T15:21:02.388Z,43.20
2023-05-05T15:24:04.917Z,44.00
2023-05-05T15:27:06.623Z,45.10
2023-05-05T15:30:09.021Z,44.40
2023-05-05T15:33:10.720Z,43.40
2023-05-05T15:36:12.559Z,44.50
2023-05-05T15:39:14.273Z,46.30
2023-05-05T15:42:15.916Z,47.50
2023-05-05T15:45:17.718Z,48.60
2023-05-05T15:48:19.563Z,49.70
2023-05-05T15:51:21.297Z,50.00
2023-05-05T15:54:22.954Z,50.60
2023-05-05T15:57:24.662Z,51.30
2023-05-05T16:00:26.631Z,51.20
2023-05-05T16:03:28.604Z,52.10
2023-05-05T16:06:30.629Z,52.20
2023-05-05T16:09:32.267Z,52.60
2023-05-05T16:12:33.893Z,53.30
2023-05-05T16:15:35.806Z,53.50
2023-05-05T16:18:37.427Z,54.50
2023-05-05T16:21:38.998Z,55.00
2023-05-05T16:24:42.514Z,56.70
2023-05-05T16:27:46.197Z,58.90
2023-05-05T16:30:47.858Z,60.10
2023-05-05T16:33:49.480Z,60.50
2023-05-05T16:36:51.266Z,61.00
2023-05-05T16:39:52.934Z,62.60
2023-05-05T16:42:54.591Z,63.70
2023-05-05T16:45:56.363Z,65.50
2023-05-05T16:48:58.290Z,65.20
2023-05-05T16:51:59.966Z,65.60
2023-05-05T16:55:04.533Z,67.20
2023-05-05T16:58:06.150Z,67.10
2023-05-05T17:01:07.797Z,67.60
2023-05-05T17:04:09.760Z,67.70
2023-05-05T17:07:11.352Z,68.10
2023-05-05T17:10:12.944Z,68.20
2023-05-05T17:13:14.908Z,68.90
2023-05-05T17:16:16.600Z,68.50
2023-05-05T17:19:18.232Z,69.00
2023-05-05T17:22:19.860Z,70.30
2023-05-05T17:25:21.638Z,67.60
2023-05-05T17:28:23.283Z,67.50
2023-05-05T17:31:24.913Z,67.80
2023-05-05T17:34:26.493Z,67.50
2023-05-05T17:37:28.152Z,68.10
2023-05-05T17:40:29.829Z,67.70
2023-05-05T17:43:31.407Z,68.00
2023-05-05T17:46:33.069Z,69.60
2023-05-05T17:49:34.785Z,70.00
2023-05-05T17:52:36.506Z,70.20
2023-05-05T17:55:38.174Z,70.20
2023-05-05T17:58:39.765Z,69.50
2023-05-05T18:01:41.530Z,69.40
2023-05-05T18:04:43.449Z,69.10
2023-05-05T18:07:45.441Z,69.50
2023-05-05T18:10:47.021Z,69.30
2023-05-05T18:13:48.580Z,69.60
2023-05-05T18:16:53.047Z,69.60
2023-05-05T18:19:54.849Z,69.00
2023-05-05T18:22:56.529Z,68.70
2023-05-05T18:25:58.134Z,69.40
2023-05-05T18:28:59.722Z,69.80
2023-05-05T18:32:01.728Z,69.70
2023-05-05T18:35:03.541Z,69.50
2023-05-05T18:38:05.298Z,69.40
2023-05-05T18:41:07.104Z,69.50
2023-05-05T18:44:08.798Z,69.40
2023-05-05T18:47:10.581Z,69.70
2023-05-05T18:50:12.755Z,69.80
2023-05-05T18:53:16.496Z,69.50
2023-05-05T18:56:18.054Z,70.00
2023-05-05T18:59:20.820Z,70.30
2023-05-05T19:02:22.481Z,71.00
2023-05-05T19:05:24.207Z,71.10
2023-05-05T19:08:25.819Z,71.30
2023-05-05T19:11:27.443Z,72.00
2023-05-05T19:14:29.347Z,73.10
2023-05-05T19:17:32.182Z,74.30
2023-05-05T19:20:33.827Z,75.60
2023-05-05T19:23:36.141Z,76.60
2023-05-05T19:26:37.823Z,77.20
2023-05-05T19:29:40.304Z,78.20
2023-05-05T19:32:41.976Z,78.90
2023-05-05T19:35:44.152Z,79.20
2023-05-05T19:38:46.525Z,79.70
2023-05-05T19:41:48.298Z,79.90
2023-05-05T19:44:49.914Z,79.60
2023-05-05T19:47:51.579Z,79.80
2023-05-05T19:50:53.195Z,80.10
2023-05-05T19:53:54.774Z,80.30
2023-05-05T19:57:00.538Z,80.30
2023-05-05T20:00:02.379Z,80.30
2023-05-05T20:03:04.151Z,80.20
2023-05-05T20:06:06.055Z,80.40
2023-05-05T20:09:08.492Z,80.70
2023-05-05T20:12:10.776Z,81.10
2023-05-05T20:15:18.390Z,81.00
2023-05-05T20:18:20.144Z,81.30
2023-05-05T20:21:21.811Z,81.20
2023-05-05T20:24:23.368Z,80.90
2023-05-05T20:27:26.650Z,80.70
2023-05-05T20:30:29.601Z,80.60
2023-05-05T20:33:31.320Z,80.70
2023-05-05T20:36:32.959Z,80.60
2023-05-05T20:39:34.601Z,80.20
2023-05-05T20:42:36.973Z,80.00
2023-05-05T20:45:38.539Z,79.90
2023-05-05T20:48:42.734Z,80.40
2023-05-05T20:51:44.765Z,81.10
2023-05-05T20:54:46.424Z,81.70
2023-05-05T20:57:48.026Z,82.00
2023-05-05T21:00:49.796Z,82.50
2023-05-05T21:03:51.628Z,82.80
2023-05-05T21:06:53.250Z,83.00
2023-05-05T21:09:54.939Z,83.30
2023-05-05T21:12:56.670Z,83.40
2023-05-05T21:15:58.340Z,83.10
2023-05-05T21:19:00.394Z,83.10
2023-05-05T21:22:02.375Z,82.90
2023-05-05T21:25:17.606Z,83.00
2023-05-05T21:28:19.223Z,82.90
2023-05-05T21:31:22.452Z,82.00
2023-05-05T21:34:24.240Z,81.60
2023-05-05T21:37:25.937Z,81.50
2023-05-05T21:40:27.575Z,81.60
2023-05-05T21:43:29.227Z,81.50
2023-05-05T21:46:31.279Z,81.30
2023-05-05T21:49:33.020Z,81.50
2023-05-05T21:52:34.658Z,81.90
2023-05-05T21:55:36.382Z,82.00
2023-05-05T21:58:37.974Z,82.60
2023-05-05T22:01:39.562Z,83.10
2023-05-05T22:04:41.203Z,83.20
2023-05-05T22:07:42.769Z,82.50
2023-05-05T22:10:44.755Z,81.60
2023-05-05T22:13:46.732Z,80.50
2023-05-05T22:16:48.487Z,80.40
2023-05-05T22:19:50.955Z,80.80
2023-05-05T22:22:52.527Z,81.40
2023-05-05T22:25:54.372Z,82.20
2023-05-05T22:28:56.996Z,83.20
2023-05-05T22:31:58.621Z,85.10
2023-05-05T22:35:01.180Z,85.80
2023-05-05T22:38:03.089Z,86.60
2023-05-05T22:41:07.207Z,87.00
2023-05-05T22:44:08.881Z,87.20
2023-05-05T22:47:10.560Z,87.50
2023-05-05T22:50:12.381Z,87.40
2023-05-05T22:53:13.962Z,87.10
2023-05-05T22:56:15.630Z,87.10
2023-05-05T22:59:17.249Z,87.20
2023-05-05T23:02:18.833Z,87.30
2023-05-05T23:05:20.627Z,87.30
2023-05-05T23:08:23.954Z,87.40
2023-05-05T23:11:26.138Z,87.80
2023-05-05T23:14:27.689Z,88.10
2023-05-05T23:17:29.279Z,88.30
2023-05-05T23:20:30.957Z,88.70
2023-05-05T23:23:32.579Z,89.20
2023-05-05T23:26:34.563Z,89.40
2023-05-05T23:29:36.143Z,89.90
2023-05-05T23:32:37.842Z,90.00
2023-05-05T23:35:43.146Z,90.20
2023-05-05T23:38:45.626Z,90.20
2023-05-05T23:41:47.192Z,90.00
2023-05-05T23:44:48.768Z,89.60
2023-05-05T23:47:50.414Z,89.20
2023-05-05T23:50:52.564Z,89.00
2023-05-05T23:53:56.608Z,88.90
2023-05-05T23:57:00.193Z,88.80
